Map

Track Data

SID SEASON NUMBER BASIN SUBBASIN NAME ISO_TIME NATURE LAT LON WMO_WIND WMO_PRES WMO_AGENCY TRACK_TYPE DIST2LAND LANDFALL IFLAG USA_AGENCY USA_ATCF_ID USA_LAT USA_LON USA_RECORD USA_STATUS USA_WIND USA_PRES USA_SSHS USA_R34_NE USA_R34_SE USA_R34_SW USA_R34_NW USA_R50_NE USA_R50_SE USA_R50_SW USA_R50_NW USA_R64_NE USA_R64_SE USA_R64_SW USA_R64_NW USA_POCI USA_ROCI USA_RMW USA_EYE TOKYO_LAT TOKYO_LON TOKYO_GRADE TOKYO_WIND TOKYO_PRES TOKYO_R50_DIR TOKYO_R50_LONG TOKYO_R50_SHORT TOKYO_R30_DIR TOKYO_R30_LONG TOKYO_R30_SHORT TOKYO_LAND CMA_LAT CMA_LON CMA_CAT CMA_WIND CMA_PRES HKO_LAT HKO_LON HKO_CAT HKO_WIND HKO_PRES NEWDELHI_LAT NEWDELHI_LON NEWDELHI_GRADE NEWDELHI_WIND NEWDELHI_PRES NEWDELHI_CI NEWDELHI_DP NEWDELHI_POCI REUNION_LAT REUNION_LON REUNION_TYPE REUNION_WIND REUNION_PRES REUNION_TNUM REUNION_CI REUNION_RMW REUNION_R34_NE REUNION_R34_SE REUNION_R34_SW REUNION_R34_NW REUNION_R50_NE REUNION_R50_SE REUNION_R50_SW REUNION_R50_NW REUNION_R64_NE REUNION_R64_SE REUNION_R64_SW REUNION_R64_NW BOM_LAT BOM_LON BOM_TYPE BOM_WIND BOM_PRES BOM_TNUM BOM_CI BOM_RMW BOM_R34_NE BOM_R34_SE BOM_R34_SW BOM_R34_NW BOM_R50_NE BOM_R50_SE BOM_R50_SW BOM_R50_NW BOM_R64_NE BOM_R64_SE BOM_R64_SW BOM_R64_NW BOM_ROCI BOM_POCI BOM_EYE BOM_POS_METHOD BOM_PRES_METHOD NADI_LAT NADI_LON NADI_CAT NADI_WIND NADI_PRES WELLINGTON_LAT WELLINGTON_LON WELLINGTON_WIND WELLINGTON_PRES DS824_LAT DS824_LON DS824_STAGE DS824_WIND DS824_PRES TD9636_LAT TD9636_LON TD9636_STAGE TD9636_WIND TD9636_PRES TD9635_LAT TD9635_LON TD9635_WIND TD9635_PRES TD9635_ROCI NEUMANN_LAT NEUMANN_LON NEUMANN_CLASS NEUMANN_WIND NEUMANN_PRES MLC_LAT MLC_LON MLC_CLASS MLC_WIND MLC_PRES USA_GUST BOM_GUST BOM_GUST_PER REUNION_GUST REUNION_GUST_PER USA_SEAHGT USA_SEARAD_NE USA_SEARAD_SE USA_SEARAD_SW USA_SEARAD_NW STORM_SPEED STORM_DIR
1958279N10086 1958 94 NI BB NOT_NAMED 1958-10-05 18:00:00 TS 10.0000 86.4000 main 572 572 O________O____ jtwc_io IO091958 10.0000 86.4000 -1 10.0000 86.4000 TC 0 0
1958279N10086 1958 94 NI BB NOT_NAMED 1958-10-05 21:00:00 TS 10.0025 86.4149 main 572 567 P________P____ IO091958 10.0025 86.4149 -1 10.0025 86.4149 TC 1 317
1958279N10086 1958 94 NI BB NOT_NAMED 1958-10-06 00:00:00 TS 10.1000 86.3000 main 567 547 O________O____ jtwc_io IO091958 10.1000 86.3000 -1 10.1000 86.3000 TC 25 6 309
1958279N10086 1958 94 NI BB NOT_NAMED 1958-10-06 03:00:00 TS 10.3600 85.9711 main 552 518 P________PO___ IO091958 10.3550 85.9675 -1 10.3550 85.9675 TC 25 10.4000 86.0000 1 10 308
1958279N10086 1958 94 NI BB NOT_NAMED 1958-10-06 06:00:00 TS 10.7080 85.4995 main 518 489 O________OP___ jtwc_io IO091958 10.7000 85.5000 -1 10.7000 85.5000 TC 25 10.7398 85.4977 1 12 306
1958279N10086 1958 94 NI BB NOT_NAMED 1958-10-06 09:00:00 TS 11.0482 85.0097 main 489 468 P________PP___ IO091958 11.0350 85.0149 -1 11.0350 85.0149 TC 25 11.0834 84.9958 1 12 306
1958279N10086 1958 94 NI BB NOT_NAMED 1958-10-06 12:00:00 TS 11.4118 84.4987 main 468 420 O________OP___ jtwc_io IO091958 11.4000 84.5000 -1 11.4000 84.5000 TC 25 11.4353 84.4961 1 12 307
1958279N10086 1958 94 NI BB NOT_NAMED 1958-10-06 15:00:00 TS 11.7999 84.0049 main 420 360 P________PO___ IO091958 11.7999 84.0074 -1 11.7999 84.0074 TC 25 11.8000 84.0000 1 13 309
1958279N10086 1958 94 NI BB NOT_NAMED 1958-10-06 18:00:00 TS 12.1931 83.5021 main 360 304 O________OP___ jtwc_io IO091958 12.2000 83.5000 -1 12.2000 83.5000 TC 25 12.1794 83.5061 1 13 307
1958279N10086 1958 94 NI BB NOT_NAMED 1958-10-06 21:00:00 TS 12.5547 82.9721 main 303 242 P________PP___ IO091958 12.5499 82.9573 -1 12.5499 82.9573 TC 30 12.5641 83.0019 1 13 304
1958279N10086 1958 94 NI BB NOT_NAMED 1958-10-07 00:00:00 TS 12.9139 82.4239 main 231 173 O________OP___ jtwc_io IO091958 12.9000 82.4000 -1 12.9000 82.4000 TC 35 12.9418 82.4717 1 13 305
1958279N10086 1958 94 NI BB NOT_NAMED 1958-10-07 03:00:00 TS 13.3048 81.8816 main 173 108 P________PO___ IO091958 13.3072 81.8724 -1 13.3072 81.8724 TC 30 13.3000 81.9000 2 13 305
1958279N10086 1958 94 NI BB NOT_NAMED 1958-10-07 06:00:00 TS 13.6845 81.2962 main 108 48 O________OP___ jtwc_io IO091958 13.7000 81.3000 -1 13.7000 81.3000 TC 25 13.6536 81.2885 2 14 300
1958279N10086 1958 94 NI BB NOT_NAMED 1958-10-07 09:00:00 TS 14.0139 80.6308 main 39 0 P________PP___ IO091958 14.0299 80.6299 -1 14.0299 80.6299 TC 25 13.9817 80.6326 2 15 294
1958279N10086 1958 94 NI BB NOT_NAMED 1958-10-07 12:00:00 TS 14.2897 79.9118 main 0 0 O________OP___ jtwc_io IO091958 14.3000 79.9000 -1 14.3000 79.9000 TC 25 14.2690 79.9354 2 15 290
1958279N10086 1958 94 NI BB NOT_NAMED 1958-10-07 15:00:00 TS 14.5248 79.1816 main 0 0 P________PO___ IO091958 14.5372 79.1724 -1 14.5372 79.1724 TC 25 14.5000 79.2000 1 15 285
1958279N10086 1958 94 NI BB NOT_NAMED 1958-10-07 18:00:00 TS 14.6887 78.4023 main 0 0 O________OP___ jtwc_io IO091958 14.7000 78.4000 -1 14.7000 78.4000 TC 25 14.6660 78.4069 1 16 279
1958279N10086 1958 94 NI AS NOT_NAMED 1958-10-07 21:00:00 TS 14.7736 77.5512 main 0 0 P________PP___ IO091958 14.7726 77.5348 -1 14.7726 77.5348 TC 25 14.7756 77.5842 1 16 274
1958279N10086 1958 94 NI AS NOT_NAMED 1958-10-08 00:00:00 TS 14.8158 76.7232 main 0 0 O________OP___ jtwc_io IO091958 14.8000 76.7000 -1 14.8000 76.7000 TC 25 14.8473 76.7695 1 15 274
1958279N10086 1958 94 NI AS NOT_NAMED 1958-10-08 03:00:00 TS 14.8664 76.0133 main 0 0 P________PO___ IO091958 14.8495 76.0200 -1 14.8495 76.0200 TC 25 14.9000 76.0000 1 13 274
1958279N10086 1958 94 NI AS NOT_NAMED 1958-10-08 06:00:00 TS 14.9129 75.3760 main 0 0 O________OP___ jtwc_io IO091958 14.9000 75.4000 -1 14.9000 75.4000 TC 25 14.9387 75.3279 1 12 274
1958279N10086 1958 94 NI AS NOT_NAMED 1958-10-08 09:00:00 TS 14.9510 74.7345 main 0 0 P________PP___ IO091958 14.9423 74.7499 -1 14.9423 74.7499 TC 25 14.9683 74.7038 1 12 274
1958279N10086 1958 94 NI AS NOT_NAMED 1958-10-08 12:00:00 TS 15.0046 74.1009 main 0 0 O________OP___ jtwc_io IO091958 15.0000 74.1000 -1 15.0000 74.1000 TC 25 15.0138 74.1028 1 12 276
1958279N10086 1958 94 NI AS NOT_NAMED 1958-10-08 15:00:00 TS 15.0798 73.4765 main 42 42 P________PO___ IO091958 15.0697 73.4647 -1 15.0697 73.4647 TC 25 15.1000 73.5000 1 13 280
1958279N10086 1958 94 NI AS NOT_NAMED 1958-10-08 18:00:00 TS 15.2165 72.7977 main 106 106 O________OP___ jtwc_io IO091958 15.2000 72.8000 -1 15.2000 72.8000 TC 25 15.2494 72.7930 1 14 284
1958279N10086 1958 94 NI AS NOT_NAMED 1958-10-08 21:00:00 TS 15.4373 72.0281 main 178 174 P________PP___ IO091958 15.4354 71.9979 -1 15.4354 71.9979 TC 25 15.4410 72.0885 1 15 289
1958279N10086 1958 94 NI AS NOT_NAMED 1958-10-09 00:00:00 TS 15.6873 71.3466 main 231 231 O________OP___ jtwc_io IO091958 15.7000 71.3000 -1 15.7000 71.3000 TC 25 15.6620 71.4398 1 12 293
1958279N10086 1958 94 NI AS NOT_NAMED 1958-10-09 03:00:00 TS 15.8997 70.9165 main 265 265 P________PO___ IO091958 15.8996 70.9247 -1 15.8996 70.9247 TC 25 15.9000 70.9000 1 8 302
1958279N10086 1958 94 NI AS NOT_NAMED 1958-10-09 06:00:00 TS 16.1115 70.6448 main 291 290 O________OP___ jtwc_io IO091958 16.1000 70.7000 -1 16.1000 70.7000 TC 25 16.1344 70.5344 1 7 312
1958279N10086 1958 94 NI AS NOT_NAMED 1958-10-09 09:00:00 TS 16.3561 70.3880 main 309 309 P________PP___ IO091958 16.3424 70.4424 -1 16.3424 70.4424 TC 25 16.3835 70.2792 1 7 317
1958279N10086 1958 94 NI AS NOT_NAMED 1958-10-09 12:00:00 TS 16.6137 70.1615 main 327 327 O________OP___ jtwc_io IO091958 16.6000 70.2000 -1 16.6000 70.2000 TC 25 16.6410 70.0844 1 7 320
1958279N10086 1958 94 NI AS NOT_NAMED 1958-10-09 15:00:00 TS 16.8666 69.9333 main 348 348 P________PO___ IO091958 16.8500 69.9499 -1 16.8500 69.9499 TC 30 16.9000 69.9000 1 7 318
1958279N10086 1958 94 NI AS NOT_NAMED 1958-10-09 18:00:00 TS 17.1235 69.6766 main 360 360 O________OP___ jtwc_io IO091958 17.1000 69.7000 -1 17.1000 69.7000 TC 35 17.1704 69.6298 1 7 316
1958279N10086 1958 94 NI AS NOT_NAMED 1958-10-09 21:00:00 TS 17.3792 69.4209 main 381 381 P________PP___ IO091958 17.3500 69.4499 -1 17.3500 69.4499 TC 50 17.4376 69.3628 1 7 316
1958279N10086 1958 94 NI AS NOT_NAMED 1958-10-10 00:00:00 TS 17.6287 69.1714 main 385 371 O________OP___ jtwc_io IO091958 17.6000 69.2000 -1 17.6000 69.2000 TC 65 17.6860 69.1143 1 7 316
1958279N10086 1958 94 NI AS NOT_NAMED 1958-10-10 03:00:00 TS 17.8817 68.9184 main 371 364 P________PO___ IO091958 17.8725 68.9276 -1 17.8725 68.9276 TC 65 17.9000 68.9000 4 6 316
1958279N10086 1958 94 NI AS NOT_NAMED 1958-10-10 06:00:00 TS 18.0883 68.7115 main 364 361 O________OP___ jtwc_io IO091958 18.1000 68.7000 -1 18.1000 68.7000 TC 65 18.0648 68.7346 4 5 316
1958279N10086 1958 94 NI AS NOT_NAMED 1958-10-10 09:00:00 TS 18.2132 68.5864 main 361 358 P________PP___ IO091958 18.2224 68.5774 -1 18.2224 68.5774 TC 65 18.1948 68.6046 4 3 316
1958279N10086 1958 94 NI AS NOT_NAMED 1958-10-10 12:00:00 TS 18.3008 68.4991 main 358 355 O________OP___ jtwc_io IO091958 18.3000 68.5000 -1 18.3000 68.5000 TC 65 18.3024 68.4972 4 3 317
1958279N10086 1958 94 NI AS NOT_NAMED 1958-10-10 15:00:00 TS 18.4000 68.4000 main 355 352 P________PO___ IO091958 18.4000 68.4000 -1 18.4000 68.4000 TC 65 18.4000 68.4000 4 3 317
1958279N10086 1958 94 NI AS NOT_NAMED 1958-10-10 18:00:00 TS 18.4983 68.3016 main 352 349 O________OP___ jtwc_io IO091958 18.5000 68.3000 -1 18.5000 68.3000 TC 65 18.4949 68.3048 4 3 316
1958279N10086 1958 94 NI AS NOT_NAMED 1958-10-10 21:00:00 TS 18.5900 68.2049 main 349 346 P________PP___ IO091958 18.5925 68.2000 -1 18.5925 68.2000 TC 65 18.5849 68.2147 4 3 317
1958279N10086 1958 94 NI AS NOT_NAMED 1958-10-11 00:00:00 TS 18.6941 68.1058 main 346 338 O________OP___ jtwc_io IO091958 18.7000 68.1000 -1 18.7000 68.1000 TC 65 18.6824 68.1173 4 3 322
1958279N10086 1958 94 NI AS NOT_NAMED 1958-10-11 03:00:00 TS 18.8283 68.0100 main 345 335 P________PO___ IO091958 18.8425 68.0150 -1 18.8425 68.0150 TC 65 18.8000 68.0000 4 4 325
1958279N10086 1958 94 NI AS NOT_NAMED 1958-10-11 06:00:00 TS 18.9858 67.8849 main 335 335 O________OP___ jtwc_io IO091958 19.0000 67.9000 -1 19.0000 67.9000 TC 65 18.9575 67.8547 4 4 317
1958279N10086 1958 94 NI AS NOT_NAMED 1958-10-11 09:00:00 TS 19.1400 67.7058 main 343 335 P________PP___ IO091958 19.1425 67.7150 -1 19.1425 67.7150 TC 65 19.1349 67.6875 4 5 311
1958279N10086 1958 94 NI AS NOT_NAMED 1958-10-11 12:00:00 TS 19.3066 67.5005 main 343 342 O________OP___ jtwc_io IO091958 19.3000 67.5000 -1 19.3000 67.5000 TC 65 19.3199 67.5016 4 5 314
1958279N10086 1958 94 NI AS NOT_NAMED 1958-10-11 15:00:00 TS 19.5000 67.3050 main 342 342 P________PO___ IO091958 19.5000 67.3075 -1 19.5000 67.3075 TC 65 19.5000 67.3000 4 5 315
1958279N10086 1958 94 NI AS NOT_NAMED 1958-10-11 18:00:00 TS 19.6898 67.0938 main 342 342 O________OP___ jtwc_io IO091958 19.7000 67.1000 -1 19.7000 67.1000 TC 65 19.6694 67.0813 4 6 310
1958279N10086 1958 94 NI AS NOT_NAMED 1958-10-11 21:00:00 TS 19.8534 66.8500 main 339 339 P________PP___ IO091958 19.8650 66.8500 -1 19.8650 66.8500 TC 65 19.8301 66.8501 4 6 303
1958279N10086 1958 94 NI AS NOT_NAMED 1958-10-12 00:00:00 TS 19.9919 66.6063 main 350 349 O________OP___ jtwc_io IO091958 20.0000 66.6000 -1 20.0000 66.6000 TC 65 19.9757 66.6188 4 5 300
1958279N10086 1958 94 NI AS NOT_NAMED 1958-10-12 03:00:00 TS 20.1050 66.3900 main 357 357 P________PO___ IO091958 20.1075 66.3849 -1 20.1075 66.3849 TC 65 20.1000 66.4000 4 4 299
1958279N10086 1958 94 NI AS NOT_NAMED 1958-10-12 06:00:00 TS 20.2029 66.2048 main 365 365 O________OP___ jtwc_io IO091958 20.2000 66.2000 -1 20.2000 66.2000 TC 65 20.2086 66.2146 4 4 302
1958279N10086 1958 94 NI AS NOT_NAMED 1958-10-12 09:00:00 TS 20.3082 66.0475 main 374 367 P________PP___ IO091958 20.3149 66.0500 -1 20.3149 66.0500 TC 65 20.2948 66.0424 4 3 302
1958279N10086 1958 94 NI AS NOT_NAMED 1958-10-12 12:00:00 TS 20.3862 65.8913 main 376 376 O________OP___ jtwc_io IO091958 20.4000 65.9000 -1 20.4000 65.9000 TC 65 20.3586 65.8740 4 3 288
1958279N10086 1958 94 NI AS NOT_NAMED 1958-10-12 15:00:00 TS 20.4100 65.7100 main 393 393 P________PO___ IO091958 20.4150 65.7150 -1 20.4150 65.7150 TC 65 20.4000 65.7000 4 4 273
1958279N10086 1958 94 NI AS NOT_NAMED 1958-10-12 18:00:00 TS 20.4072 65.4915 main 411 411 O________OP___ jtwc_io IO091958 20.4000 65.5000 -1 20.4000 65.5000 TC 65 20.4217 65.4746 4 4 270
1958279N10086 1958 94 NI AS NOT_NAMED 1958-10-12 21:00:00 TS 20.4076 65.2341 main 438 438 P________PP___ IO091958 20.4001 65.2275 -1 20.4001 65.2275 TC 65 20.4227 65.2473 4 4 270
1958279N10086 1958 94 NI AS NOT_NAMED 1958-10-13 00:00:00 TS 20.4041 65.0155 main 456 456 O________OP___ jtwc_io IO091958 20.4000 65.0000 -1 20.4000 65.0000 TC 65 20.4123 65.0465 4 3 269
1958279N10086 1958 94 NI AS NOT_NAMED 1958-10-13 03:00:00 TS 20.4000 64.9083 main 465 465 P________PO___ IO091958 20.3999 64.9125 -1 20.3999 64.9125 TC 65 20.4000 64.9000 4 1 268
1958279N10086 1958 94 NI AS NOT_NAMED 1958-10-13 06:00:00 TS 20.4000 64.8808 main 465 465 O________OP___ jtwc_io IO091958 20.4000 64.9000 -1 20.4000 64.9000 TC 65 20.3999 64.8425 4 0 270
1958279N10086 1958 94 NI AS NOT_NAMED 1958-10-13 09:00:00 TS 20.4000 64.8750 main 465 465 P________PP___ IO091958 20.4000 64.8925 -1 20.4000 64.8925 TC 65 20.3999 64.8400 4 0 0
1958279N10086 1958 94 NI AS NOT_NAMED 1958-10-13 12:00:00 TS 20.4000 64.8892 main 465 465 O________OP___ jtwc_io IO091958 20.4000 64.9000 -1 20.4000 64.9000 TC 65 20.3999 64.8675 4 0 0
1958279N10086 1958 94 NI AS NOT_NAMED 1958-10-13 15:00:00 TS 20.4000 64.9000 main 465 465 P________PO___ IO091958 20.4000 64.9000 -1 20.4000 64.9000 TC 65 20.4000 64.9000 4 0 0
1958279N10086 1958 94 NI AS NOT_NAMED 1958-10-13 18:00:00 TS 20.4000 64.9041 main 465 465 O________OP___ jtwc_io IO091958 20.4000 64.9000 -1 20.4000 64.9000 TC 65 20.4000 64.9122 4 0 0
1958279N10086 1958 94 NI AS NOT_NAMED 1958-10-13 21:00:00 TS 20.4000 64.9075 main 465 465 P________PP___ IO091958 20.4000 64.9000 -1 20.4000 64.9000 TC 65 20.4000 64.9225 4 0 0
1958279N10086 1958 94 NI AS NOT_NAMED 1958-10-14 00:00:00 TS 20.4000 64.9072 main 465 465 O________OP___ jtwc_io IO091958 20.4000 64.9000 -1 20.4000 64.9000 TC 65 20.4000 64.9216 4 0 0
1958279N10086 1958 94 NI AS NOT_NAMED 1958-10-14 03:00:00 TS 20.4000 64.9100 main 465 465 P________PO___ IO091958 20.4000 64.9150 -1 20.4000 64.9150 TC 65 20.4000 64.9000 4 0 0
1958279N10086 1958 94 NI AS NOT_NAMED 1958-10-14 06:00:00 TS 20.4000 64.8808 main 465 465 O________OP___ jtwc_io IO091958 20.4000 64.9000 -1 20.4000 64.9000 TC 65 20.4000 64.8425 4 1 270
1958279N10086 1958 94 NI AS NOT_NAMED 1958-10-14 09:00:00 TS 20.4000 64.7983 main 474 474 P________PP___ IO091958 20.4000 64.8150 -1 20.4000 64.8150 TC 65 20.4000 64.7650 4 2 270
1958279N10086 1958 94 NI AS NOT_NAMED 1958-10-14 12:00:00 TS 20.4000 64.6933 main 483 483 O________OP___ jtwc_io IO091958 20.4000 64.7000 -1 20.4000 64.7000 TC 65 20.4000 64.6800 4 2 270
1958279N10086 1958 94 NI AS NOT_NAMED 1958-10-14 15:00:00 TS 20.4000 64.5950 main 489 489 P________PO___ IO091958 20.4000 64.5925 -1 20.4000 64.5925 TC 65 20.4000 64.6000 4 2 268
1958279N10086 1958 94 NI AS NOT_NAMED 1958-10-14 18:00:00 TS 20.3946 64.5102 main 496 496 O________OP___ jtwc_io IO091958 20.4000 64.5000 -1 20.4000 64.5000 TC 65 20.3837 64.5306 4 1 264
1958279N10086 1958 94 NI AS NOT_NAMED 1958-10-14 21:00:00 TS 20.3850 64.4467 main 503 503 P________PP___ IO091958 20.3925 64.4350 -1 20.3925 64.4350 TC 65 20.3700 64.4700 4 1 268
1958279N10086 1958 94 NI AS NOT_NAMED 1958-10-15 00:00:00 TS 20.3904 64.4081 main 503 503 O________OP___ jtwc_io IO091958 20.4000 64.4000 -1 20.4000 64.4000 TC 65 20.3712 64.4244 4 1 313
1958279N10086 1958 94 NI AS NOT_NAMED 1958-10-15 03:00:00 TS 20.4233 64.3950 main 503 494 P________PO___ IO091958 20.4350 64.3925 -1 20.4350 64.3925 TC 65 20.4000 64.4000 4 1 354
1958279N10086 1958 94 NI AS NOT_NAMED 1958-10-15 06:00:00 TS 20.4945 64.3971 main 494 486 O________OP___ jtwc_io IO091958 20.5000 64.4000 -1 20.5000 64.4000 TC 65 20.4834 64.3913 4 2 0
1958279N10086 1958 94 NI AS NOT_NAMED 1958-10-15 09:00:00 TS 20.5925 64.3917 main 486 477 P________PP___ IO091958 20.5925 64.3850 -1 20.5925 64.3850 TC 65 20.5925 64.4050 4 2 0
1958279N10086 1958 94 NI AS NOT_NAMED 1958-10-15 12:00:00 TS 20.7018 64.4137 main 477 462 O________OP___ jtwc_io IO091958 20.7000 64.4000 -1 20.7000 64.4000 TC 65 20.7053 64.4412 4 2 22
1958279N10086 1958 94 NI AS NOT_NAMED 1958-10-15 15:00:00 TS 20.8100 64.4900 main 462 447 P________PO___ IO091958 20.8150 64.4849 -1 20.8150 64.4849 TC 65 20.8000 64.5000 4 2 42
1958279N10086 1958 94 NI AS NOT_NAMED 1958-10-15 18:00:00 TS 20.8840 64.5921 main 447 440 O________OP___ jtwc_io IO091958 20.9000 64.6000 -1 20.9000 64.6000 TC 65 20.8601 64.5803 4 2 63
1958279N10086 1958 94 NI AS NOT_NAMED 1958-10-15 21:00:00 TS 20.9072 64.6933 main 440 433 P________PP___ IO091958 20.9200 64.7050 -1 20.9200 64.7050 TC 65 20.8901 64.6775 4 2 85
1958279N10086 1958 94 NI AS NOT_NAMED 1958-10-16 00:00:00 TS 20.9000 64.7930 main 433 426 O________OP___ jtwc_io IO091958 20.9000 64.8000 -1 20.9000 64.8000 TC 65 20.9001 64.7860 4 2 92
1958279N10086 1958 94 NI AS NOT_NAMED 1958-10-16 03:00:00 NR 20.9000 64.9000 main 426 __________O___ IO091958 -1 TC 20.9000 64.9000 4 2 90

About IBTrACS Database

This database is a web-friendly format of International Best Track Archive for Climate Stewardship (IBTrACS), a global best track data archive curated by NOAA dating back to 1842.

Updated: 2021-10-21